createdAt,value
2023-04-15T05:36:52.549Z,86.80
2023-04-15T05:39:54.292Z,86.80
2023-04-15T05:42:56.166Z,86.70
2023-04-15T05:45:57.847Z,86.70
2023-04-15T05:48:59.766Z,86.70
2023-04-15T05:52:01.572Z,86.70
2023-04-15T05:55:03.257Z,86.70
2023-04-15T05:58:06.316Z,86.60
2023-04-15T06:01:07.960Z,86.60
2023-04-15T06:04:09.806Z,86.40
2023-04-15T06:07:11.559Z,86.40
2023-04-15T06:10:13.209Z,86.30
2023-04-15T06:13:14.877Z,86.20
2023-04-15T06:16:16.597Z,86.30
2023-04-15T06:19:18.481Z,86.20
2023-04-15T06:22:20.118Z,86.20
2023-04-15T06:25:22.098Z,86.20
2023-04-15T06:28:23.738Z,86.20
2023-04-15T06:31:25.543Z,86.20
2023-04-15T06:34:27.412Z,86.20
2023-04-15T06:37:29.149Z,86.20
2023-04-15T06:40:31.219Z,86.30
2023-04-15T06:43:32.837Z,86.10
2023-04-15T06:46:34.966Z,86.10
2023-04-15T06:49:36.634Z,86.10
2023-04-15T06:52:38.408Z,86.10
2023-04-15T06:55:40.501Z,86.00
2023-04-15T06:58:42.321Z,86.00
2023-04-15T07:01:44.096Z,85.90
2023-04-15T07:04:45.766Z,85.90
2023-04-15T07:07:47.659Z,85.80
2023-04-15T07:10:49.299Z,85.80
2023-04-15T07:13:50.941Z,85.70
2023-04-15T07:16:52.997Z,85.70
2023-04-15T07:19:54.896Z,85.70
2023-04-15T07:22:56.664Z,85.70
2023-04-15T07:25:58.507Z,85.70
2023-04-15T07:29:00.366Z,85.70
2023-04-15T07:32:02.822Z,85.60
2023-04-15T07:35:04.953Z,85.50
2023-04-15T07:38:06.864Z,85.50
2023-04-15T07:41:08.511Z,85.50
2023-04-15T07:44:10.419Z,85.50
2023-04-15T07:47:12.268Z,85.60
2023-04-15T07:50:14.432Z,85.50
2023-04-15T07:53:16.089Z,85.50
2023-04-15T07:56:18.044Z,85.40
2023-04-15T07:59:19.910Z,85.50
2023-04-15T08:02:22.350Z,85.50
2023-04-15T08:05:24.213Z,85.50
2023-04-15T08:08:26.438Z,85.50
2023-04-15T08:11:28.183Z,85.30
2023-04-15T08:14:29.876Z,85.10
2023-04-15T08:17:31.765Z,85.00
2023-04-15T08:20:33.920Z,84.80
2023-04-15T08:23:35.650Z,84.60
2023-04-15T08:26:37.720Z,84.50
2023-04-15T08:29:39.347Z,84.40
2023-04-15T08:32:42.587Z,84.10
2023-04-15T08:35:44.254Z,84.00
2023-04-15T08:38:46.168Z,83.90
2023-04-15T08:41:51.852Z,83.70
2023-04-15T08:44:53.504Z,83.60
2023-04-15T08:47:56.349Z,83.40
2023-04-15T08:50:58.133Z,83.10
2023-04-15T08:54:00.466Z,82.80
2023-04-15T08:57:02.574Z,82.60
2023-04-15T09:00:05.711Z,82.20
2023-04-15T09:03:08.134Z,81.60
2023-04-15T09:06:10.808Z,81.40
2023-04-15T09:09:14.262Z,81.40
2023-04-15T09:12:17.269Z,81.40
2023-04-15T09:15:18.941Z,81.50
2023-04-15T09:18:34.207Z,81.50
2023-04-15T09:21:35.832Z,81.50
2023-04-15T09:24:39.070Z,81.60
2023-04-15T09:27:50.916Z,81.60
2023-04-15T09:30:57.664Z,81.50
2023-04-15T09:33:59.428Z,81.30
2023-04-15T09:37:01.536Z,81.40
2023-04-15T09:40:03.935Z,81.10
2023-04-15T09:43:06.279Z,80.70
2023-04-15T09:46:08.308Z,79.80
2023-04-15T09:49:13.435Z,79.10
2023-04-15T09:52:15.411Z,79.00
2023-04-15T09:55:18.269Z,78.60
2023-04-15T09:58:24.574Z,78.50
2023-04-15T10:01:26.272Z,78.30
2023-04-15T10:04:28.699Z,78.30
2023-04-15T10:07:30.894Z,78.30
2023-04-15T10:10:33.281Z,78.20
2023-04-15T10:13:37.368Z,78.00
2023-04-15T10:16:39.626Z,77.70
2023-04-15T10:19:41.334Z,77.70
2023-04-15T10:22:43.444Z,77.90
2023-04-15T10:25:46.441Z,78.20
2023-04-15T10:28:48.857Z,78.40
2023-04-15T10:31:51.142Z,78.40
2023-04-15T10:34:54.417Z,78.10
2023-04-15T10:37:56.476Z,78.00
2023-04-15T10:41:19.484Z,78.10
2023-04-15T10:44:22.093Z,78.00
2023-04-15T10:47:23.982Z,77.90
2023-04-15T10:50:29.874Z,77.70
2023-04-15T10:53:31.886Z,77.30
2023-04-15T10:56:33.747Z,76.80
2023-04-15T10:59:39.620Z,76.70
2023-04-15T11:03:07.826Z,76.50
2023-04-15T11:06:09.854Z,76.30
2023-04-15T11:09:30.648Z,76.30
2023-04-15T11:12:38.564Z,76.10
2023-04-15T11:15:45.024Z,76.10
2023-04-15T11:18:55.953Z,76.20
2023-04-15T11:21:57.607Z,75.70
2023-04-15T11:24:59.314Z,75.00
2023-04-15T11:28:01.962Z,74.30
2023-04-15T11:31:17.625Z,73.40
2023-04-15T11:34:25.665Z,73.20
2023-04-15T11:37:30.649Z,73.40
2023-04-15T11:40:36.378Z,73.20
2023-04-15T11:43:38.010Z,72.30
2023-04-15T11:46:39.716Z,71.70
2023-04-15T11:49:41.565Z,71.20
2023-04-15T11:53:03.100Z,71.10
2023-04-15T11:56:06.151Z,71.00
2023-04-15T11:59:07.822Z,71.20
2023-04-15T12:02:13.585Z,70.80
2023-04-15T12:05:16.066Z,70.00
2023-04-15T12:08:17.963Z,69.10
2023-04-15T12:11:51.687Z,68.80
2023-04-15T12:14:53.733Z,68.90
2023-04-15T12:17:55.913Z,69.40
2023-04-15T12:20:58.295Z,69.20
2023-04-15T12:24:02.142Z,69.90
2023-04-15T12:27:08.496Z,69.50
2023-04-15T12:30:11.598Z,68.60
2023-04-15T12:33:13.366Z,67.90
2023-04-15T12:36:15.581Z,67.10
2023-04-15T12:39:17.536Z,66.80
2023-04-15T12:42:19.422Z,66.90
2023-04-15T12:45:21.420Z,66.70
2023-04-15T12:48:23.403Z,65.80
2023-04-15T12:51:26.374Z,65.40
2023-04-15T12:54:28.762Z,65.30
2023-04-15T12:57:30.499Z,64.70
2023-04-15T13:00:34.552Z,64.70
2023-04-15T13:03:36.337Z,65.10
2023-04-15T13:06:38.517Z,65.10
2023-04-15T13:09:40.158Z,64.30
2023-04-15T13:12:41.812Z,63.50
2023-04-15T13:15:45.889Z,63.20
2023-04-15T13:18:48.936Z,63.40
2023-04-15T13:21:50.604Z,63.90
2023-04-15T13:24:52.233Z,64.40
2023-04-15T13:27:54.064Z,64.70
2023-04-15T13:30:55.741Z,65.00
2023-04-15T13:33:57.595Z,65.00
2023-04-15T13:36:59.334Z,64.40
2023-04-15T13:40:01.088Z,63.30
2023-04-15T13:43:03.331Z,62.70
2023-04-15T13:46:05.576Z,61.90
2023-04-15T13:49:07.445Z,61.40
2023-04-15T13:52:12.388Z,61.40
2023-04-15T13:55:19.083Z,61.60
2023-04-15T13:58:22.556Z,61.70
2023-04-15T14:01:24.699Z,61.20
2023-04-15T14:04:26.444Z,60.80
2023-04-15T14:07:29.782Z,59.80
2023-04-15T14:10:31.429Z,59.50
2023-04-15T14:13:33.109Z,58.70
2023-04-15T14:16:35.146Z,58.60
2023-04-15T14:19:36.793Z,58.40
2023-04-15T14:22:38.444Z,58.50
2023-04-15T14:25:40.185Z,58.50
2023-04-15T14:28:44.757Z,58.00
2023-04-15T14:32:08.776Z,57.80
2023-04-15T14:35:08.424Z,57.40
2023-04-15T14:38:11.261Z,56.80
2023-04-15T14:41:13.330Z,55.90
2023-04-15T14:44:15.212Z,55.40
2023-04-15T14:47:17.034Z,55.30
2023-04-15T14:50:18.832Z,55.70
2023-04-15T14:53:20.490Z,56.20
2023-04-15T14:56:22.240Z,56.80
2023-04-15T14:59:23.928Z,57.00
2023-04-15T15:02:37.226Z,57.10
2023-04-15T15:05:41.135Z,57.40
2023-04-15T15:08:42.888Z,57.40
2023-04-15T15:11:44.545Z,57.70
2023-04-15T15:14:46.242Z,58.00
2023-04-15T15:17:48.215Z,58.20
2023-04-15T15:20:49.942Z,58.20
2023-04-15T15:23:51.755Z,58.00
2023-04-15T15:26:53.499Z,58.00
2023-04-15T15:29:56.586Z,57.80
2023-04-15T15:32:58.431Z,57.90
2023-04-15T15:36:00.154Z,58.00
2023-04-15T15:39:05.287Z,58.10
2023-04-15T15:42:07.566Z,58.30
2023-04-15T15:45:09.928Z,57.60
2023-04-15T15:48:11.631Z,56.60
2023-04-15T15:51:13.330Z,56.20
2023-04-15T15:54:14.969Z,56.10
2023-04-15T15:57:17.662Z,54.90
2023-04-15T16:00:19.351Z,54.00
2023-04-15T16:03:21.403Z,53.60
2023-04-15T16:06:23.150Z,52.70
2023-04-15T16:09:24.876Z,51.80
2023-04-15T16:12:26.648Z,50.90
2023-04-15T16:15:28.393Z,51.20
2023-04-15T16:18:30.134Z,52.40
2023-04-15T16:21:32.348Z,53.00
2023-04-15T16:24:34.945Z,53.10
2023-04-15T16:27:53.790Z,53.30
2023-04-15T16:30:59.885Z,53.00
2023-04-15T16:34:02.225Z,52.20
2023-04-15T16:37:03.905Z,51.50
2023-04-15T16:40:06.227Z,50.90
2023-04-15T16:43:08.198Z,51.60
2023-04-15T16:46:11.090Z,52.70
2023-04-15T16:49:12.792Z,53.70
2023-04-15T16:52:14.490Z,54.70
2023-04-15T16:55:16.316Z,55.30
2023-04-15T16:58:17.969Z,55.90
2023-04-15T17:01:21.357Z,56.30
2023-04-15T17:04:23.302Z,56.70
2023-04-15T17:07:25.060Z,57.20
2023-04-15T17:10:26.822Z,57.40
2023-04-15T17:13:28.461Z,57.70
2023-04-15T17:16:30.090Z,57.80
2023-04-15T17:19:31.952Z,58.10
2023-04-15T17:22:33.650Z,58.30
2023-04-15T17:25:35.307Z,58.60
2023-04-15T17:28:37.111Z,59.00
2023-04-15T17:31:38.869Z,59.40
2023-04-15T17:34:50.118Z,59.80
2023-04-15T17:37:52.815Z,60.00
2023-04-15T17:40:55.123Z,60.20
2023-04-15T17:43:56.753Z,60.60
2023-04-15T17:46:58.517Z,60.90
2023-04-15T17:50:00.318Z,61.20
2023-04-15T17:53:01.976Z,61.30
2023-04-15T17:56:03.747Z,61.60
2023-04-15T17:59:06.331Z,61.80
2023-04-15T18:02:08.100Z,61.90
2023-04-15T18:05:10.416Z,62.10
2023-04-15T18:08:12.106Z,62.10
2023-04-15T18:11:13.783Z,62.20
2023-04-15T18:14:23.508Z,62.40
2023-04-15T18:17:32.890Z,62.50
2023-04-15T18:20:34.671Z,62.60
2023-04-15T18:23:37.394Z,62.70
2023-04-15T18:26:39.099Z,62.70
2023-04-15T18:29:40.751Z,62.70
2023-04-15T18:32:42.451Z,62.90
2023-04-15T18:35:44.183Z,63.10
2023-04-15T18:38:46.203Z,63.20
2023-04-15T18:41:47.940Z,63.60
2023-04-15T18:44:50.227Z,63.90
2023-04-15T18:47:52.279Z,64.10
2023-04-15T18:50:54.149Z,64.50
2023-04-15T18:53:55.990Z,64.80
2023-04-15T18:56:57.801Z,65.10
2023-04-15T18:59:59.580Z,65.30
2023-04-15T19:03:01.497Z,65.40
2023-04-15T19:06:03.298Z,65.50
2023-04-15T19:09:05.150Z,65.60
2023-04-15T19:12:06.993Z,65.70
2023-04-15T19:15:08.945Z,65.80
2023-04-15T19:18:11.731Z,65.90
2023-04-15T19:21:13.406Z,66.00
2023-04-15T19:24:15.578Z,66.20
2023-04-15T19:27:17.336Z,66.30
2023-04-15T19:30:19.056Z,66.30
2023-04-15T19:33:20.787Z,66.30
2023-04-15T19:36:22.596Z,66.50
2023-04-15T19:39:24.309Z,66.70
2023-04-15T19:42:26.031Z,67.00
2023-04-15T19:45:27.722Z,67.30
2023-04-15T19:48:29.455Z,67.50
2023-04-15T19:51:31.788Z,67.70
2023-04-15T19:54:33.538Z,67.70
2023-04-15T19:57:35.524Z,67.90
2023-04-15T20:00:37.864Z,67.90
2023-04-15T20:03:39.704Z,68.00
2023-04-15T20:06:41.679Z,68.30
2023-04-15T20:09:44.065Z,68.60
2023-04-15T20:12:50.271Z,68.90
2023-04-15T20:15:54.618Z,69.20
2023-04-15T20:18:56.359Z,69.60
2023-04-15T20:21:58.005Z,69.80
2023-04-15T20:25:04.266Z,70.10
2023-04-15T20:28:06.216Z,70.50
2023-04-15T20:31:07.932Z,70.70
2023-04-15T20:34:11.430Z,71.00
2023-04-15T20:37:13.821Z,71.20
2023-04-15T20:40:15.551Z,71.40
2023-04-15T20:43:17.277Z,71.50
2023-04-15T20:46:21.383Z,71.50
2023-04-15T20:49:23.438Z,71.50
2023-04-15T20:52:25.066Z,71.40
2023-04-15T20:55:27.941Z,71.30
2023-04-15T20:58:30.709Z,71.10
2023-04-15T21:01:32.628Z,70.90
2023-04-15T21:04:34.370Z,71.00
2023-04-15T21:07:36.400Z,71.00
2023-04-15T21:10:57.213Z,71.00
2023-04-15T21:13:58.980Z,71.10
2023-04-15T21:17:07.310Z,71.20
2023-04-15T21:20:11.533Z,71.20
2023-04-15T21:23:13.238Z,71.20
2023-04-15T21:26:15.362Z,71.20
2023-04-15T21:29:17.081Z,71.40
2023-04-15T21:32:19.001Z,71.60
2023-04-15T21:35:21.022Z,71.60
2023-04-15T21:38:23.470Z,71.70
2023-04-15T21:41:25.675Z,72.20
2023-04-15T21:44:27.379Z,72.30
2023-04-15T21:47:29.165Z,72.50
2023-04-15T21:50:30.926Z,72.50
2023-04-15T21:53:32.894Z,72.80
2023-04-15T21:56:34.735Z,73.00
2023-04-15T21:59:36.366Z,73.40
2023-04-15T22:02:38.339Z,73.80
2023-04-15T22:05:40.380Z,74.10
2023-04-15T22:08:55.399Z,74.40
2023-04-15T22:11:59.719Z,74.70
2023-04-15T22:15:01.812Z,74.90
2023-04-15T22:18:04.025Z,75.00
2023-04-15T22:21:06.215Z,74.90
2023-04-15T22:24:38.044Z,74.80
2023-04-15T22:27:29.694Z,74.80
2023-04-15T22:30:31.330Z,75.00
2023-04-15T22:33:32.976Z,75.00
2023-04-15T22:36:34.675Z,75.10
2023-04-15T22:39:36.421Z,75.00
2023-04-15T22:42:38.068Z,75.00
2023-04-15T22:45:39.867Z,75.00
2023-04-15T22:48:42.899Z,75.20
2023-04-15T22:51:44.538Z,75.50
2023-04-15T22:54:46.164Z,75.60
2023-04-15T22:57:48.035Z,75.60
2023-04-15T23:00:50.220Z,75.70
2023-04-15T23:03:57.146Z,75.90
2023-04-15T23:07:06.915Z,75.90
2023-04-15T23:10:09.168Z,75.90
2023-04-15T23:13:11.125Z,76.20
2023-04-15T23:16:13.119Z,76.50
2023-04-15T23:19:14.802Z,76.30
2023-04-15T23:22:16.476Z,76.20
2023-04-15T23:25:20.408Z,76.40
2023-04-15T23:28:22.357Z,76.50
2023-04-15T23:31:24.026Z,76.60
2023-04-15T23:34:26.221Z,76.60
2023-04-15T23:37:29.577Z,76.50
2023-04-15T23:40:31.249Z,76.40
2023-04-15T23:43:32.919Z,76.40
2023-04-15T23:46:34.856Z,76.60
2023-04-15T23:49:36.996Z,76.80
2023-04-15T23:52:38.668Z,77.00
2023-04-15T23:55:40.312Z,77.00
2023-04-15T23:58:42.204Z,77.10
